Time;durP1;ratioP1;P1;durP2;ratioP2;P2;SDS_P1;SDS_P2;PMS_P1;PMS_P2;Temp;Humidity;BMP_temperature;BMP_pressure;BME280_temperature;BME280_humidity;BME280_pressure;Samples;Min_cycle;Max_cycle;Signal;HPM_P1;HPM_P2
2021/08/29 03:12:43;;;;;;;;;;;;;;;;;;;;;
2021/08/29 03:19:54;;;;;;;22.02;19.82;;;;;;;18.72;100.00;100680.50;1562122;88;22242;-90
2021/08/29 04:03:30;;;;;;;;;;;;;;;;;;;;;
2021/08/29 04:10:28;;;;;;;19.23;17.32;;;;;;;18.72;100.00;100687.09;1488986;94;21125;-84
2021/08/29 04:13:46;;;;;;;;;;;;;;;;;;;;;
2021/08/29 04:21:35;;;;;;;20.88;18.37;;;;;;;18.65;100.00;100695.34;1619233;88;21066;-90
2021/08/29 04:24:53;;;;;;;;;;;;;;;;;;;;;
2021/08/29 04:27:23;;;;;;;22.22;17.77;;;;;;;18.68;100.00;100688.41;1606138;88;21083;-87
2021/08/29 04:29:51;;;;;;;19.42;16.10;;;;;;;18.73;100.00;100691.38;1602617;88;21160;-89
2021/08/29 04:32:20;;;;;;;19.07;16.85;;;;;;;18.80;100.00;100694.16;1657054;85;21037;-89
2021/08/29 04:34:48;;;;;;;21.65;18.77;;;;;;;18.83;100.00;100695.15;1701500;83;21038;-88
2021/08/29 04:37:17;;;;;;;24.98;18.98;;;;;;;18.86;100.00;100684.27;1713474;80;21441;-91
2021/08/29 04:39:46;;;;;;;23.92;18.57;;;;;;;18.90;100.00;100690.04;1775303;80;21075;-87
2021/08/29 04:42:13;;;;;;;25.45;18.17;;;;;;;18.88;100.00;100686.73;1771143;80;21049;-87
2021/08/29 04:44:40;;;;;;;21.33;18.50;;;;;;;18.89;100.00;100683.92;1781919;79;21485;-88
2021/08/29 04:47:08;;;;;;;20.85;18.80;;;;;;;18.93;100.00;100681.80;1764715;79;21039;-89
2021/08/29 04:49:39;;;;;;;23.62;18.85;;;;;;;18.95;100.00;100673.73;1757688;80;21033;-87
2021/08/29 04:52:11;;;;;;;20.88;18.77;;;;;;;18.98;100.00;100679.50;1781242;79;21145;-87
2021/08/29 04:54:38;;;;;;;21.52;19.30;;;;;;;19.02;100.00;100672.88;1761437;80;21517;-90
2021/08/29 04:57:05;;;;;;;21.17;18.90;;;;;;;19.09;100.00;100675.66;1779736;79;21549;-89
2021/08/29 04:59:33;;;;;;;21.00;18.90;;;;;;;19.17;100.00;100678.76;1762570;79;21054;-89
2021/08/29 05:02:01;;;;;;;26.45;20.32;;;;;;;19.24;100.00;100677.08;1745397;80;21544;-91
2021/08/29 05:04:28;;;;;;;23.57;21.25;;;;;;;19.32;100.00;100679.69;1771001;80;21013;-87
2021/08/29 05:06:57;;;;;;;27.17;19.87;;;;;;;19.40;100.00;100672.24;1709397;84;21071;-89
2021/08/29 05:09:25;;;;;;;22.52;20.17;;;;;;;19.47;100.00;100672.39;1775966;80;21018;-86
2021/08/29 05:11:53;;;;;;;63.87;22.13;;;;;;;19.54;100.00;100664.09;1681050;84;21016;-88
2021/08/29 05:14:20;;;;;;;25.88;21.87;;;;;;;19.62;100.00;100669.81;1745059;80;21021;-90
2021/08/29 05:16:47;;;;;;;25.12;22.52;;;;;;;19.70;100.00;100668.45;1775657;80;21169;-88
2021/08/29 05:19:15;;;;;;;26.10;21.48;;;;;;;19.79;100.00;100668.73;1787421;79;21049;-89
2021/08/29 05:21:42;;;;;;;27.05;24.25;;;;;;;19.88;100.00;100672.67;1699165;82;20990;-87
2021/08/29 05:24:11;;;;;;;29.00;22.70;;;;;;;19.97;100.00;100672.95;1680750;82;21082;-90
2021/08/29 05:26:46;;;;;;;26.17;23.57;;;;;;;20.06;100.00;100678.50;1689376;82;21153;-91
2021/08/29 05:29:13;;;;;;;27.13;24.35;;;;;;;20.14;100.00;100666.55;1778150;79;21116;-88
2021/08/29 05:31:41;;;;;;;26.02;23.38;;;;;;;20.22;100.00;100662.19;1769112;80;21161;-89
2021/08/29 05:34:08;;;;;;;26.85;24.10;;;;;;;20.30;100.00;100664.25;1744116;80;21014;-90
2021/08/29 05:36:35;;;;;;;28.40;24.25;;;;;;;20.40;100.00;100660.03;1744015;80;21188;-88
2021/08/29 05:39:03;;;;;;;27.67;24.70;;;;;;;20.48;100.00;100661.27;1744354;80;21062;-86
2021/08/29 05:41:34;;;;;;;28.65;25.65;;;;;;;20.58;100.00;100658.88;1753530;79;21776;-88
2021/08/29 05:44:19;;;;;;;27.32;24.30;;;;;;;20.65;100.00;100654.02;1776158;79;20931;-88
2021/08/29 05:46:48;;;;;;;31.93;24.18;;;;;;;20.77;100.00;100652.27;1807501;78;20951;-88
2021/08/29 05:49:15;;;;;;;26.23;23.45;;;;;;;20.88;100.00;100650.98;1770486;80;21109;-87
2021/08/29 05:51:42;;;;;;;26.05;23.35;;;;;;;20.98;100.00;100654.19;1686145;83;21517;-91
2021/08/29 05:54:10;;;;;;;26.82;24.07;;;;;;;21.08;100.00;100653.41;1713419;83;21145;-90
2021/08/29 05:56:38;;;;;;;29.85;25.05;;;;;;;21.17;100.00;100651.48;1711802;81;21144;-90
2021/08/29 05:59:12;;;;;;;30.35;25.90;;;;;;;21.25;100.00;100656.67;1695439;82;21097;-86
2021/08/29 06:01:42;;;;;;;28.90;25.70;;;;;;;21.37;100.00;100665.48;1767940;79;22008;-88
2021/08/29 06:04:09;;;;;;;27.93;24.77;;;;;;;21.47;100.00;100662.53;1745770;80;21106;-90
2021/08/29 06:06:41;;;;;;;29.27;25.20;;;;;;;21.56;100.00;100659.57;1741690;80;21110;-88
2021/08/29 06:09:08;;;;;;;26.40;23.80;;;;;;;21.68;100.00;100661.78;1745345;80;21073;-90
2021/08/29 06:11:37;;;;;;;26.82;23.98;;;;;;;21.77;100.00;100663.30;1775457;80;21018;-88
2021/08/29 06:14:06;;;;;;;28.67;25.60;;;;;;;21.88;100.00;100658.00;1745518;80;21026;-88
2021/08/29 06:16:36;;;;;;;26.07;23.25;;;;;;;21.98;100.00;100654.54;1775829;80;21485;-88
2021/08/29 06:19:05;;;;;;;;;;;;;;;22.09;100.00;100651.88;1748085;80;21002;-88
2021/08/29 06:21:35;;;;;;;28.02;25.20;;;;;;;22.19;100.00;100657.66;1739231;80;20454;-88
2021/08/29 06:24:02;;;;;;;26.77;24.18;;;;;;;22.29;100.00;100658.67;1745224;80;21026;-90
2021/08/29 06:26:49;;;;;;;29.18;24.72;;;;;;;22.38;100.00;100654.88;1784621;79;21612;-88
2021/08/29 06:29:35;;;;;;;27.45;24.63;;;;;;;22.50;100.00;100653.87;1679907;83;21006;-89
2021/08/29 06:32:21;;;;;;;26.15;23.55;;;;;;;22.63;100.00;100646.51;1750379;80;21157;-89
2021/08/29 06:34:50;;;;;;;29.45;24.67;;;;;;;22.75;100.00;100634.00;1758316;80;21600;-87
2021/08/29 06:37:19;;;;;;;28.47;23.92;;;;;;;22.84;100.00;100631.51;1743433;80;21032;-86
2021/08/29 06:39:46;;;;;;;28.60;24.77;;;;;;;22.94;100.00;100628.48;1745363;80;20954;-87
2021/08/29 06:42:14;;;;;;;29.32;24.87;;;;;;;23.06;100.00;100628.74;1776117;79;20985;-88
2021/08/29 06:44:45;;;;;;;26.65;23.80;;;;;;;23.16;100.00;100627.88;1745669;79;22130;-88
2021/08/29 06:47:29;;;;;;;26.00;23.20;;;;;;;23.25;100.00;100624.06;1778494;79;21596;-88
2021/08/29 06:50:06;;;;;;;25.20;22.70;;;;;;;23.37;100.00;100618.16;1743689;81;21030;-89
2021/08/29 06:52:52;;;;;;;26.25;23.42;;;;;;;23.49;100.00;100623.21;1780461;79;20978;-88
2021/08/29 06:55:38;;;;;;;25.12;22.40;;;;;;;23.63;100.00;100617.42;1761342;80;21042;-90
2021/08/29 06:58:22;;;;;;;25.20;22.60;;;;;;;23.76;100.00;100612.11;1753764;80;21334;-91
2021/08/29 07:00:49;;;;;;;24.80;22.27;;;;;;;23.90;100.00;100610.78;1743183;80;21084;-89
2021/08/29 07:03:16;;;;;;;26.57;22.22;;;;;;;24.04;100.00;100615.11;1725625;78;21530;-87
2021/08/29 07:05:43;;;;;;;24.57;22.07;;;;;;;24.17;100.00;100612.16;1696424;83;21447;-90
2021/08/29 07:08:12;;;;;;;24.43;20.97;;;;;;;24.31;100.00;100608.98;1648072;83;22073;-89
2021/08/29 07:10:41;;;;;;;24.95;21.62;;;;;;;24.44;100.00;100612.94;1715537;82;21225;-91
2021/08/29 07:14:16;;;;;;;22.82;20.40;;;;;;;24.56;100.00;100611.78;1775497;80;21054;-87
2021/08/29 07:16:43;;;;;;;22.67;20.10;;;;;;;24.70;100.00;100604.09;1793148;79;21002;-88
2021/08/29 07:19:10;;;;;;;23.22;20.25;;;;;;;24.89;100.00;100597.06;1761220;79;21572;-89
2021/08/29 07:21:56;;;;;;;21.85;19.65;;;;;;;25.06;100.00;100601.91;1750856;79;20995;-89
2021/08/29 07:24:43;;;;;;;26.30;19.48;;;;;;;25.26;100.00;100601.02;1691535;84;21113;-88
2021/08/29 07:27:29;;;;;;;22.48;18.77;;;;;;;25.41;100.00;100598.91;1727860;81;21034;-91
2021/08/29 07:30:14;;;;;;;19.45;17.48;;;;;;;25.55;100.00;100595.64;1759013;79;21507;-90
2021/08/29 07:32:46;;;;;;;21.07;16.77;;;;;;;25.71;100.00;100593.48;1772544;78;21074;-88
2021/08/29 07:35:13;;;;;;;20.15;15.55;;;;;;;25.85;100.00;100586.17;1807742;78;20995;-88
2021/08/29 07:38:00;;;;;;;16.42;13.62;;;;;;;26.01;100.00;100591.49;1780196;80;21202;-89
2021/08/29 07:40:27;;;;;;;16.93;14.10;;;;;;;26.21;100.00;100590.01;1739729;82;21034;-88
2021/08/29 07:42:54;;;;;;;16.20;14.50;;;;;;;26.38;100.00;100584.40;1689358;82;21110;-88
2021/08/29 07:45:21;;;;;;;14.18;12.70;;;;;;;26.51;100.00;100582.11;1719759;82;21077;-89
2021/08/29 07:47:55;;;;;;;13.98;12.50;;;;;;;26.66;100.00;100579.05;1715010;81;21087;-89
2021/08/29 07:50:24;;;;;;;13.32;12.03;;;;;;;26.81;100.00;100571.20;1760224;80;22032;-88
2021/08/29 07:52:52;;;;;;;17.20;13.15;;;;;;;26.99;100.00;100571.71;1781283;79;21097;-88
2021/08/29 07:55:38;;;;;;;15.28;13.43;;;;;;;27.14;100.00;100568.11;1764218;79;21462;-89
2021/08/29 07:58:13;;;;;;;14.03;12.58;;;;;;;27.31;100.00;100566.94;1744075;79;21497;-88
2021/08/29 08:00:40;;;;;;;15.30;13.38;;;;;;;27.45;100.00;100568.09;1767196;80;21066;-89
2021/08/29 08:03:26;;;;;;;19.32;15.45;;;;;;;27.58;100.00;100564.41;1763443;80;21051;-88
2021/08/29 08:06:11;;;;;;;24.47;16.00;;;;;;;27.70;100.00;100564.72;1782190;79;21017;-90
2021/08/29 08:08:43;;;;;;;23.02;14.83;;;;;;;27.83;100.00;100565.55;1769201;80;21036;-88
2021/08/29 08:11:31;;;;;;;18.23;14.75;;;;;;;27.96;100.00;100561.84;1782019;79;21427;-88
2021/08/29 08:13:58;;;;;;;20.02;15.48;;;;;;;28.09;100.00;100558.95;1759138;80;21038;-89
2021/08/29 08:16:25;;;;;;;22.17;16.07;;;;;;;28.20;100.00;100554.63;1764645;80;21108;-89
2021/08/29 08:18:52;;;;;;;21.75;14.83;;;;;;;28.30;100.00;100554.03;1763949;80;21129;-88
2021/08/29 08:21:21;;;;;;;20.88;12.95;;;;;;;28.40;100.00;100547.56;1728829;80;21317;-89
2021/08/29 08:23:50;;;;;;;20.05;12.73;;;;;;;28.52;100.00;100544.86;1748919;79;21076;-89
2021/08/29 08:26:29;;;;;;;19.12;12.15;;;;;;;28.63;100.00;100539.17;1781333;79;21027;-88
2021/08/29 08:29:15;;;;;;;15.25;10.45;;;;;;;28.74;100.00;100538.36;1756992;78;21072;-89
2021/08/29 08:31:54;;;;;;;12.28;10.20;;;;;;;28.84;94.17;100532.37;1709286;82;21026;-89
2021/08/29 08:34:39;;;;;;;16.35;11.60;;;;;;;28.93;86.74;100536.30;1739325;81;21076;-89
2021/08/29 08:37:11;;;;;;;16.15;11.00;;;;;;;29.00;85.75;100532.15;1699566;82;21509;-89
2021/08/29 08:39:57;;;;;;;17.60;10.32;;;;;;;29.05;70.80;100527.38;1775866;79;21015;-88
2021/08/29 08:42:32;;;;;;;12.78;9.28;;;;;;;29.09;64.96;100527.20;1772053;78;21446;-89
2021/08/29 08:45:18;;;;;;;13.85;9.13;;;;;;;29.12;64.14;100528.06;1775932;79;21061;-89
2021/08/29 08:48:05;;;;;;;11.53;9.83;;;;;;;29.16;69.03;100514.45;1709460;82;21105;-89
2021/08/29 08:50:52;;;;;;;11.15;9.38;;;;;;;29.24;61.04;100511.91;1738790;81;21025;-89
2021/08/29 08:53:40;;;;;;;14.83;9.53;;;;;;;29.28;60.06;100514.38;1807515;78;21587;-89
2021/08/29 08:56:24;;;;;;;9.83;8.90;;;;;;;29.37;68.76;100502.74;1754750;80;21298;-88
2021/08/29 08:59:00;;;;;;;13.30;8.98;;;;;;;29.47;53.41;100507.48;1703018;82;21466;-88
2021/08/29 09:01:34;;;;;;;11.50;7.87;;;;;;;29.51;54.40;100502.72;1711937;81;21073;-88
2021/08/29 09:04:05;;;;;;;11.40;8.65;;;;;;;29.56;52.32;100506.81;1772745;79;22009;-89
2021/08/29 09:06:37;;;;;;;13.68;8.45;;;;;;;29.63;55.23;100503.14;1803017;78;21461;-87
2021/08/29 09:09:04;;;;;;;9.90;8.70;;;;;;;29.71;49.25;100502.73;1776389;78;21842;-88
2021/08/29 09:11:34;;;;;;;11.68;8.58;;;;;;;29.76;49.08;100490.75;1751173;79;21524;-88
2021/08/29 09:14:03;;;;;;;12.35;8.80;;;;;;;29.79;46.50;100491.58;1776163;79;21070;-88
2021/08/29 09:16:30;;;;;;;13.95;9.60;;;;;;;29.86;47.56;100481.47;1685859;82;21089;-88
2021/08/29 09:19:05;;;;;;;10.15;8.13;;;;;;;29.94;47.50;100486.16;1685274;82;20935;-88
2021/08/29 09:21:36;;;;;;;12.47;9.38;;;;;;;30.01;47.98;100489.47;1709334;82;21101;-89
2021/08/29 09:24:11;;;;;;;11.53;9.88;;;;;;;30.09;47.11;100478.85;1706172;82;21509;-88
2021/08/29 09:26:49;;;;;;;12.18;8.80;;;;;;;30.16;47.82;100477.62;1737975;82;21097;-88
2021/08/29 09:29:24;;;;;;;10.82;9.35;;;;;;;30.21;49.90;100480.36;1656479;82;21051;-88
2021/08/29 09:31:53;;;;;;;10.88;9.08;;;;;;;30.28;48.61;100473.98;1686209;82;21023;-89
2021/08/29 09:34:31;;;;;;;16.27;9.83;;;;;;;30.34;47.01;100476.99;1710086;82;21076;-88
2021/08/29 09:37:01;;;;;;;12.23;9.50;;;;;;;30.39;45.83;100473.04;1686253;82;21102;-88
2021/08/29 09:39:36;;;;;;;10.20;9.10;;;;;;;30.45;45.32;100471.20;1706272;82;21018;-89
2021/08/29 09:42:23;;;;;;;11.12;9.65;;;;;;;30.51;46.25;100464.88;1632454;86;21038;-88
2021/08/29 09:45:23;;;;;;;11.15;8.40;;;;;;;30.60;45.19;100463.87;1621262;87;21602;-88
2021/08/29 09:48:13;;;;;;;13.50;9.28;;;;;;;30.67;45.98;100455.91;1658129;81;21156;-88
2021/08/29 09:50:46;;;;;;;13.48;8.55;;;;;;;30.79;44.32;100458.95;1748286;79;21019;-89
2021/08/29 09:53:24;;;;;;;17.07;9.20;;;;;;;30.86;45.21;100455.52;1777940;79;21020;-88
2021/08/29 09:56:24;;;;;;;11.45;7.90;;;;;;;30.94;44.26;100451.58;1773889;79;21065;-88
2021/08/29 09:59:09;;;;;;;8.03;7.17;;;;;;;31.02;42.24;100448.41;1780730;79;21599;-87
2021/08/29 10:01:55;;;;;;;12.43;7.67;;;;;;;31.11;41.70;100445.56;1778397;79;21154;-89
2021/08/29 10:04:24;;;;;;;12.65;7.10;;;;;;;31.18;41.73;100441.84;1741412;80;21062;-88
2021/08/29 10:06:53;;;;;;;12.05;7.05;;;;;;;31.26;41.25;100441.36;1751050;79;21069;-88
2021/08/29 10:09:26;;;;;;;10.35;7.12;;;;;;;31.33;40.34;100443.84;1784928;79;21106;-87
2021/08/29 10:11:58;;;;;;;10.13;7.17;;;;;;;31.37;40.77;100433.63;1751016;80;21035;-89
2021/08/29 10:14:26;;;;;;;9.28;6.70;;;;;;;31.41;41.10;100436.08;1756833;79;21266;-89
2021/08/29 10:17:12;;;;;;;11.10;5.90;;;;;;;31.44;40.82;100436.92;1762776;79;21076;-89
2021/08/29 10:19:58;;;;;;;8.78;6.42;;;;;;;31.51;40.54;100435.88;1776621;79;21101;-89
2021/08/29 10:22:27;;;;;;;11.83;6.85;;;;;;;31.58;40.10;100432.41;1721846;80;21122;-89
2021/08/29 10:24:54;;;;;;;8.53;6.30;;;;;;;31.60;39.28;100432.42;1781783;79;21113;-88
2021/08/29 10:27:22;;;;;;;9.60;6.85;;;;;;;31.60;37.97;100427.05;1776942;79;21051;-89
2021/08/29 10:29:56;;;;;;;7.30;5.90;;;;;;;31.63;38.93;100425.19;1773211;79;21046;-89
2021/08/29 10:32:40;;;;;;;8.78;6.28;;;;;;;31.69;37.79;100426.03;1763431;79;21014;-87
2021/08/29 10:35:21;;;;;;;10.08;6.85;;;;;;;31.71;39.84;100422.55;1764025;79;21046;-88
2021/08/29 10:37:51;;;;;;;14.65;7.67;;;;;;;31.74;37.64;100419.34;1779180;78;21543;-89
2021/08/29 10:40:32;;;;;;;10.95;7.10;;;;;;;31.73;36.72;100423.11;1740618;78;21159;-89
2021/08/29 10:43:04;;;;;;;13.15;7.80;;;;;;;31.74;38.42;100421.21;1776671;79;21552;-89
2021/08/29 10:45:50;;;;;;;12.80;7.67;;;;;;;31.77;38.34;100416.11;1785366;79;21051;-87
2021/08/29 10:48:39;;;;;;;8.93;6.70;;;;;;;31.82;39.34;100409.15;1753518;80;21564;-89
2021/08/29 10:51:14;;;;;;;9.33;7.70;;;;;;;31.88;38.83;100411.61;1774395;79;21043;-89
2021/08/29 10:53:53;;;;;;;13.10;8.18;;;;;;;31.92;40.13;100411.89;1727311;79;21127;-88
2021/08/29 10:56:34;;;;;;;8.58;6.58;;;;;;;31.96;39.15;100402.75;1743812;80;21109;-90
2021/08/29 10:59:20;;;;;;;10.53;8.10;;;;;;;31.99;38.17;100393.61;1731636;79;21529;-88
2021/08/29 11:02:09;;;;;;;11.50;7.40;;;;;;;32.03;38.83;100402.76;1765485;80;20999;-88
2021/08/29 11:04:54;;;;;;;12.35;7.90;;;;;;;32.02;37.13;100397.65;1784009;79;21079;-87
2021/08/29 11:07:48;;;;;;;12.00;7.33;;;;;;;31.98;37.79;100386.60;1757146;79;21571;-87
2021/08/29 11:10:42;;;;;;;10.78;7.33;;;;;;;31.97;39.31;100393.60;1780710;79;20996;-88
2021/08/29 11:13:33;;;;;;;8.88;6.53;;;;;;;31.92;37.70;100399.23;1745830;80;21459;-87
2021/08/29 11:16:14;;;;;;;11.77;7.03;;;;;;;31.80;37.56;100396.48;1680684;83;21464;-87
2021/08/29 11:19:06;;;;;;;11.75;7.92;;;;;;;31.71;38.03;100392.95;1740001;80;21110;-87
2021/08/29 11:21:46;;;;;;;9.98;6.87;;;;;;;31.73;39.00;100398.88;1771222;80;21167;-87
2021/08/29 11:25:10;;;;;;;11.70;7.30;;;;;;;31.85;39.33;100387.10;1777842;79;21007;-87
2021/08/29 11:27:56;;;;;;;10.68;7.53;;;;;;;32.02;39.57;100384.98;1736078;82;21655;-87
2021/08/29 11:30:40;;;;;;;10.98;7.00;;;;;;;32.08;37.83;100390.67;1710640;82;21006;-87
2021/08/29 11:33:17;;;;;;;11.45;7.55;;;;;;;32.03;38.78;100389.30;1739527;82;21564;-88
2021/08/29 11:35:51;;;;;;;10.78;7.95;;;;;;;31.98;38.08;100389.29;1711339;81;21192;-87
2021/08/29 11:38:38;;;;;;;10.45;7.92;;;;;;;31.91;39.31;100389.53;1714516;82;21111;-87
2021/08/29 11:41:17;;;;;;;12.93;7.87;;;;;;;31.81;39.11;100388.14;1771743;78;20990;-87
2021/08/29 11:43:51;;;;;;;9.33;7.03;;;;;;;31.76;39.33;100381.40;1777514;79;20999;-88
2021/08/29 11:46:24;;;;;;;11.70;7.90;;;;;;;31.75;38.61;100383.30;1800913;78;21061;-87
2021/08/29 11:49:05;;;;;;;8.05;6.92;;;;;;;31.83;38.09;100375.78;1774426;80;21966;-87
2021/08/29 11:51:38;;;;;;;8.45;6.92;;;;;;;31.94;37.64;100370.69;1772394;80;22710;-88
2021/08/29 11:54:10;;;;;;;12.63;7.60;;;;;;;32.04;37.89;100374.77;1784579;79;21012;-87
2021/08/29 11:56:39;;;;;;;11.33;7.47;;;;;;;32.12;37.05;100375.31;1756621;79;21588;-88
2021/08/29 11:59:11;;;;;;;9.25;7.22;;;;;;;32.18;37.17;100375.59;1759299;79;21108;-86
2021/08/29 12:01:38;;;;;;;14.38;7.47;;;;;;;32.22;37.12;100371.34;1751766;79;21034;-87
2021/08/29 12:04:10;;;;;;;8.68;7.28;;;;;;;32.26;37.65;100371.06;1753726;79;21030;-87
2021/08/29 12:06:50;;;;;;;13.43;7.05;;;;;;;32.30;36.79;100364.60;1773757;79;20979;-86
2021/08/29 12:09:41;;;;;;;11.18;6.72;;;;;;;32.26;36.93;100365.67;1719681;80;21493;-88
2021/08/29 12:12:29;;;;;;;9.53;6.40;;;;;;;32.24;36.30;100361.12;1782797;79;21033;-87
2021/08/29 12:15:06;;;;;;;20.17;8.30;;;;;;;32.23;37.55;100360.84;1777146;79;21075;-88
2021/08/29 12:17:35;;;;;;;10.35;7.37;;;;;;;32.22;38.24;100353.28;1741809;80;21109;-87
2021/08/29 12:20:10;;;;;;;11.73;8.33;;;;;;;32.21;37.62;100351.63;1776062;80;21049;-88
2021/08/29 12:22:38;;;;;;;8.23;7.42;;;;;;;32.20;37.29;100347.87;1691848;80;21168;-88
2021/08/29 12:25:13;;;;;;;14.58;8.15;;;;;;;32.17;36.97;100344.38;1746381;80;21081;-87
2021/08/29 12:27:42;;;;;;;11.93;8.78;;;;;;;32.13;37.28;100343.28;1778411;79;21521;-88
2021/08/29 12:30:10;;;;;;;9.55;7.58;;;;;;;32.10;38.23;100349.46;1777847;78;21675;-88
2021/08/29 12:32:37;;;;;;;9.33;8.33;;;;;;;32.12;37.79;100348.39;1781759;79;21081;-88
2021/08/29 12:35:09;;;;;;;13.50;9.95;;;;;;;32.10;37.76;100342.73;1761009;79;21058;-88
2021/08/29 12:37:47;;;;;;;11.03;9.85;;;;;;;32.07;37.20;100345.97;1686925;83;21561;-89
2021/08/29 12:40:18;;;;;;;12.23;9.78;;;;;;;32.04;37.68;100345.15;1761301;81;21853;-89
2021/08/29 12:42:49;;;;;;;14.73;10.63;;;;;;;32.03;38.32;100340.84;1759944;80;21007;-88
2021/08/29 12:45:24;;;;;;;12.75;9.58;;;;;;;32.02;37.76;100337.07;1754380;79;21511;-89
2021/08/29 12:47:51;;;;;;;16.80;10.80;;;;;;;31.99;38.22;100336.24;1773867;79;21025;-88
2021/08/29 12:50:20;;;;;;;20.12;10.53;;;;;;;31.94;37.54;100329.79;1778410;79;21103;-88
2021/08/29 12:52:52;;;;;;;16.85;11.18;;;;;;;31.90;37.87;100328.69;1756768;79;21169;-88
2021/08/29 12:55:23;;;;;;;15.83;11.15;;;;;;;31.87;39.22;100335.97;1747733;79;21029;-88
2021/08/29 12:58:05;;;;;;;16.48;10.65;;;;;;;31.86;38.24;100341.59;1759908;79;21058;-89
2021/08/29 13:00:42;;;;;;;14.15;10.03;;;;;;;31.79;37.98;100340.52;1736449;79;20990;-88
2021/08/29 13:03:09;;;;;;;17.25;10.32;;;;;;;31.71;38.67;100335.09;1713287;82;21541;-89
2021/08/29 13:05:42;;;;;;;14.25;10.85;;;;;;;31.64;38.75;100345.27;1728594;80;21100;-88
2021/08/29 13:08:09;;;;;;;14.15;11.00;;;;;;;31.59;38.27;100339.33;1766729;79;21010;-87
2021/08/29 13:10:37;;;;;;;15.10;11.40;;;;;;;31.54;38.59;100340.66;1760465;79;21521;-88
2021/08/29 13:13:13;;;;;;;13.60;10.60;;;;;;;31.50;37.83;100343.58;1771111;79;20983;-88
2021/08/29 13:15:42;;;;;;;12.13;7.75;;;;;;;31.48;39.52;100345.75;1767355;80;21113;-88
2021/08/29 13:18:10;;;;;;;17.67;8.55;;;;;;;31.45;39.27;100344.37;1758449;79;21871;-89
2021/08/29 13:20:42;;;;;;;11.08;8.73;;;;;;;31.45;39.03;100344.37;1750773;79;21141;-89
2021/08/29 13:23:29;;;;;;;15.38;8.80;;;;;;;31.43;39.53;100339.80;1754217;79;21586;-87
2021/08/29 13:26:00;;;;;;;13.75;8.23;;;;;;;31.40;38.49;100338.98;1748147;80;21050;-88
2021/08/29 13:28:30;;;;;;;9.55;7.28;;;;;;;31.37;39.26;100335.45;1775418;80;45106;-89
2021/08/29 13:31:04;;;;;;;10.58;7.22;;;;;;;31.33;39.69;100334.38;1745284;80;21076;-88
2021/08/29 13:33:32;;;;;;;11.75;7.45;;;;;;;31.30;38.75;100337.57;1777664;79;21027;-86
2021/08/29 13:36:06;;;;;;;13.72;9.00;;;;;;;31.24;38.92;100332.72;1781151;79;21539;-89
2021/08/29 13:38:35;;;;;;;22.95;11.15;;;;;;;31.19;38.89;100334.57;1781306;79;21034;-87
2021/08/29 13:41:08;;;;;;;24.02;9.75;;;;;;;31.12;38.96;100335.61;1783829;79;22372;-88
2021/08/29 13:43:40;;;;;;;16.32;9.53;;;;;;;31.05;40.27;100336.32;1725713;82;21161;-87
2021/08/29 13:46:12;;;;;;;10.60;8.05;;;;;;;30.97;39.81;100333.59;1710668;82;20994;-88
2021/08/29 13:48:39;;;;;;;18.80;9.35;;;;;;;30.82;40.01;100331.61;1702774;83;21069;-88
2021/08/29 13:51:06;;;;;;;11.15;7.90;;;;;;;30.65;40.38;100333.62;1774140;79;21034;-88
2021/08/29 13:53:35;;;;;;;12.20;8.73;;;;;;;30.43;40.34;100334.48;1708032;82;21026;-87
2021/08/29 13:56:06;;;;;;;13.22;8.00;;;;;;;30.25;40.32;100328.14;1745419;80;21095;-88
2021/08/29 13:58:33;;;;;;;15.38;8.00;;;;;;;30.12;40.90;100336.09;1779274;79;20999;-88
2021/08/29 14:01:00;;;;;;;12.73;9.03;;;;;;;30.03;41.29;100336.54;1724311;82;21011;-88
2021/08/29 14:03:27;;;;;;;14.38;9.45;;;;;;;29.97;41.64;100332.70;1746084;79;21508;-88
2021/08/29 14:05:54;;;;;;;16.17;10.32;;;;;;;29.92;42.93;100329.43;1709265;81;21029;-88
2021/08/29 14:08:22;;;;;;;11.25;8.90;;;;;;;29.84;43.38;100326.65;1762936;79;21162;-89
2021/08/29 14:10:49;;;;;;;12.65;9.43;;;;;;;29.78;43.06;100331.65;1777089;79;21068;-88
2021/08/29 14:13:17;;;;;;;15.72;9.05;;;;;;;29.73;44.01;100333.73;1775559;79;21092;-89
2021/08/29 14:15:44;;;;;;;14.25;8.68;;;;;;;29.73;45.00;100331.60;1759544;79;20956;-88
2021/08/29 14:18:12;;;;;;;17.32;10.03;;;;;;;29.75;44.75;100332.17;1679683;83;21015;-88
2021/08/29 14:20:39;;;;;;;12.25;9.30;;;;;;;29.79;44.20;100329.25;1694827;83;21793;-88
2021/08/29 14:23:07;;;;;;;12.37;10.25;;;;;;;29.81;45.84;100332.50;1694481;83;20951;-88
2021/08/29 14:25:35;;;;;;;17.27;9.60;;;;;;;29.80;46.13;100330.08;1696983;81;21084;-88
2021/08/29 14:28:03;;;;;;;15.98;10.55;;;;;;;29.74;46.48;100327.31;1722783;82;21082;-86
2021/08/29 14:30:34;;;;;;;14.58;10.58;;;;;;;29.64;45.29;100327.73;1723274;83;21162;-88
2021/08/29 14:33:02;;;;;;;15.85;11.12;;;;;;;29.53;46.10;100324.91;1687172;83;21121;-87
2021/08/29 14:35:30;;;;;;;17.15;11.45;;;;;;;29.40;47.37;100322.61;1669870;83;21632;-87
2021/08/29 14:37:57;;;;;;;17.52;11.55;;;;;;;29.27;47.16;100327.26;1745682;80;21467;-88
2021/08/29 14:40:25;;;;;;;18.92;12.37;;;;;;;29.14;47.22;100324.91;1775952;79;21084;-87
2021/08/29 14:42:52;;;;;;;25.95;12.98;;;;;;;29.06;48.26;100322.64;1776261;79;21130;-87
2021/08/29 14:45:21;;;;;;;17.95;13.03;;;;;;;29.02;49.59;100315.63;1776001;79;21057;-86
2021/08/29 14:47:50;;;;;;;18.17;12.60;;;;;;;29.03;49.88;100320.48;1756064;79;21481;-87
2021/08/29 14:50:18;;;;;;;19.82;12.58;;;;;;;29.05;50.78;100315.66;1807692;78;22209;-88
2021/08/29 14:52:47;;;;;;;18.73;13.68;;;;;;;29.10;51.55;100314.41;1702031;83;21007;-89
2021/08/29 14:55:14;;;;;;;20.75;12.30;;;;;;;29.12;51.17;100311.76;1700910;83;20947;-87
2021/08/29 14:57:41;;;;;;;19.50;12.28;;;;;;;29.14;50.76;100310.16;1779347;78;21807;-88
2021/08/29 15:00:09;;;;;;;14.13;11.40;;;;;;;29.15;50.44;100313.67;1770697;79;21065;-87
2021/08/29 15:02:39;;;;;;;19.80;13.28;;;;;;;29.14;51.30;100314.73;1780401;78;21113;-87
2021/08/29 15:05:08;;;;;;;20.80;12.23;;;;;;;29.11;53.08;100312.02;1719238;82;21053;-87
2021/08/29 15:07:35;;;;;;;21.82;13.20;;;;;;;29.07;53.37;100312.21;1796705;79;21065;-87
2021/08/29 15:10:05;;;;;;;25.85;12.75;;;;;;;29.02;53.42;100312.15;1790224;79;21797;-87
2021/08/29 15:12:34;;;;;;;23.15;11.93;;;;;;;28.97;54.14;100311.55;1803853;79;21548;-89
2021/08/29 15:15:04;;;;;;;23.90;12.30;;;;;;;28.90;55.71;100310.36;1779595;79;21305;-87
2021/08/29 15:17:32;;;;;;;18.77;11.53;;;;;;;28.84;56.77;100307.33;1736595;80;21045;-87
2021/08/29 15:19:59;;;;;;;23.22;12.20;;;;;;;28.78;58.41;100309.66;1775727;80;21077;-87
2021/08/29 15:22:27;;;;;;;47.15;16.73;;;;;;;28.71;61.19;100304.99;1745752;80;21552;-87
2021/08/29 15:24:54;;;;;;;21.95;11.95;;;;;;;28.65;64.09;100307.54;1745802;80;21065;-88
2021/08/29 15:27:21;;;;;;;19.27;11.85;;;;;;;28.59;63.52;100305.05;1775923;80;21006;-87
2021/08/29 15:29:49;;;;;;;24.40;15.18;;;;;;;28.51;63.64;100303.56;1776058;80;21591;-85
2021/08/29 15:32:16;;;;;;;111.45;56.90;;;;;;;28.43;63.99;100302.63;1762900;79;21053;-87
2021/08/29 15:34:43;;;;;;;242.80;109.87;;;;;;;28.35;64.42;100309.20;1807330;79;21139;-86
2021/08/29 15:37:12;;;;;;;223.50;108.00;;;;;;;28.28;65.23;100306.67;1774374;79;22527;-85
2021/08/29 15:39:39;;;;;;;188.72;103.47;;;;;;;28.24;66.67;100301.53;1744895;80;21046;-85
2021/08/29 15:42:10;;;;;;;127.35;70.40;;;;;;;28.18;67.96;100303.30;1746374;80;21038;-87
2021/08/29 15:44:38;;;;;;;78.40;45.52;;;;;;;28.14;69.27;100306.69;1773832;79;21604;-88
2021/08/29 15:47:06;;;;;;;75.52;41.60;;;;;;;28.09;70.39;100304.73;1764728;79;21161;-87
2021/08/29 15:49:34;;;;;;;71.30;40.10;;;;;;;28.05;71.55;100308.09;1786161;79;21075;-86
2021/08/29 15:52:03;;;;;;;52.80;32.23;;;;;;;27.99;72.11;100307.17;1780966;79;21074;-85
2021/08/29 15:54:30;;;;;;;32.80;22.52;;;;;;;27.93;72.49;100301.45;1727065;82;21541;-87